sensor_id;sensor_type;location;lat;lon;timestamp;temperature;humidity
9965;DHT22;5023;53.554;9.964;2022-09-09T00:04:15;15.70;99.90
9965;DHT22;5023;53.554;9.964;2022-09-09T00:09:52;15.70;99.90
9965;DHT22;5023;53.554;9.964;2022-09-09T00:15:03;15.70;99.90
9965;DHT22;5023;53.554;9.964;2022-09-09T00:20:12;15.80;99.90
9965;DHT22;5023;53.554;9.964;2022-09-09T00:25:23;15.70;99.90
9965;DHT22;5023;53.554;9.964;2022-09-09T00:30:34;15.80;99.90
9965;DHT22;5023;53.554;9.964;2022-09-09T00:35:38;15.70;99.90
9965;DHT22;5023;53.554;9.964;2022-09-09T00:40:50;15.70;99.90
9965;DHT22;5023;53.554;9.964;2022-09-09T00:51:43;15.70;99.90
9965;DHT22;5023;53.554;9.964;2022-09-09T00:56:59;15.70;99.90
9965;DHT22;5023;53.554;9.964;2022-09-09T01:02:09;15.60;99.90
9965;DHT22;5023;53.554;9.964;2022-09-09T01:07:17;15.70;99.90
9965;DHT22;5023;53.554;9.964;2022-09-09T01:12:30;15.50;99.90
9965;DHT22;5023;53.554;9.964;2022-09-09T01:17:52;15.60;99.90
9965;DHT22;5023;53.554;9.964;2022-09-09T01:23:12;15.50;99.90
9965;DHT22;5023;53.554;9.964;2022-09-09T01:28:24;15.50;99.90
9965;DHT22;5023;53.554;9.964;2022-09-09T01:33:27;15.50;99.90
9965;DHT22;5023;53.554;9.964;2022-09-09T01:38:33;15.40;99.90
9965;DHT22;5023;53.554;9.964;2022-09-09T01:43:38;15.40;99.90
9965;DHT22;5023;53.554;9.964;2022-09-09T01:48:41;15.40;99.90
9965;DHT22;5023;53.554;9.964;2022-09-09T01:53:44;15.30;99.90
9965;DHT22;5023;53.554;9.964;2022-09-09T01:58:57;15.30;99.90
9965;DHT22;5023;53.554;9.964;2022-09-09T02:04:23;15.30;99.90
9965;DHT22;5023;53.554;9.964;2022-09-09T02:09:32;15.30;99.90
9965;DHT22;5023;53.554;9.964;2022-09-09T02:14:40;15.20;99.90
9965;DHT22;5023;53.554;9.964;2022-09-09T02:19:51;15.10;99.90
9965;DHT22;5023;53.554;9.964;2022-09-09T02:24:56;15.10;99.90
9965;DHT22;5023;53.554;9.964;2022-09-09T02:30:03;15.20;99.90
9965;DHT22;5023;53.554;9.964;2022-09-09T02:35:08;15.20;99.90
9965;DHT22;5023;53.554;9.964;2022-09-09T02:40:13;15.10;99.90
9965;DHT22;5023;53.554;9.964;2022-09-09T02:45:20;15.10;99.90
9965;DHT22;5023;53.554;9.964;2022-09-09T02:50:31;15.10;99.90
9965;DHT22;5023;53.554;9.964;2022-09-09T02:55:39;15.10;99.90
9965;DHT22;5023;53.554;9.964;2022-09-09T03:00:46;15.10;99.90
9965;DHT22;5023;53.554;9.964;2022-09-09T03:05:49;15.10;99.90
9965;DHT22;5023;53.554;9.964;2022-09-09T03:10:55;15.00;99.90
9965;DHT22;5023;53.554;9.964;2022-09-09T03:16:00;14.90;99.90
9965;DHT22;5023;53.554;9.964;2022-09-09T03:21:04;15.00;99.90
9965;DHT22;5023;53.554;9.964;2022-09-09T03:26:07;14.90;99.90
9965;DHT22;5023;53.554;9.964;2022-09-09T03:31:14;14.90;99.90
9965;DHT22;5023;53.554;9.964;2022-09-09T03:36:16;14.90;99.90
9965;DHT22;5023;53.554;9.964;2022-09-09T03:41:19;14.90;99.90
9965;DHT22;5023;53.554;9.964;2022-09-09T03:46:25;14.80;99.90
9965;DHT22;5023;53.554;9.964;2022-09-09T03:51:27;14.80;99.90
9965;DHT22;5023;53.554;9.964;2022-09-09T03:56:30;14.80;99.90
9965;DHT22;5023;53.554;9.964;2022-09-09T04:01:34;14.80;99.90
9965;DHT22;5023;53.554;9.964;2022-09-09T04:06:36;14.70;99.90
9965;DHT22;5023;53.554;9.964;2022-09-09T04:11:40;14.70;99.90
9965;DHT22;5023;53.554;9.964;2022-09-09T04:16:45;14.70;99.90
9965;DHT22;5023;53.554;9.964;2022-09-09T04:21:48;14.60;99.90
9965;DHT22;5023;53.554;9.964;2022-09-09T04:26:53;14.70;99.90
9965;DHT22;5023;53.554;9.964;2022-09-09T04:31:56;14.70;99.90
9965;DHT22;5023;53.554;9.964;2022-09-09T04:36:59;14.60;99.90
9965;DHT22;5023;53.554;9.964;2022-09-09T04:42:02;14.60;99.90
9965;DHT22;5023;53.554;9.964;2022-09-09T04:47:07;14.60;99.90
9965;DHT22;5023;53.554;9.964;2022-09-09T04:52:12;14.60;99.90
9965;DHT22;5023;53.554;9.964;2022-09-09T04:57:14;14.70;99.90
9965;DHT22;5023;53.554;9.964;2022-09-09T05:02:19;14.70;99.90
9965;DHT22;5023;53.554;9.964;2022-09-09T05:07:22;14.80;99.90
9965;DHT22;5023;53.554;9.964;2022-09-09T05:12:26;14.70;99.90
9965;DHT22;5023;53.554;9.964;2022-09-09T05:17:30;14.70;99.90
9965;DHT22;5023;53.554;9.964;2022-09-09T05:22:33;14.70;99.90
9965;DHT22;5023;53.554;9.964;2022-09-09T05:27:35;14.70;99.90
9965;DHT22;5023;53.554;9.964;2022-09-09T05:32:45;14.80;99.90
9965;DHT22;5023;53.554;9.964;2022-09-09T05:37:49;14.80;99.90
9965;DHT22;5023;53.554;9.964;2022-09-09T05:42:51;14.90;99.90
9965;DHT22;5023;53.554;9.964;2022-09-09T05:47:55;14.90;99.90
9965;DHT22;5023;53.554;9.964;2022-09-09T05:52:58;14.90;99.90
9965;DHT22;5023;53.554;9.964;2022-09-09T05:58:01;14.90;99.90
9965;DHT22;5023;53.554;9.964;2022-09-09T06:03:10;14.90;99.90
9965;DHT22;5023;53.554;9.964;2022-09-09T06:08:21;14.90;99.90
9965;DHT22;5023;53.554;9.964;2022-09-09T06:13:25;15.00;99.90
9965;DHT22;5023;53.554;9.964;2022-09-09T06:18:34;15.00;99.90
9965;DHT22;5023;53.554;9.964;2022-09-09T06:23:36;14.90;99.90
9965;DHT22;5023;53.554;9.964;2022-09-09T06:28:42;15.10;99.90
9965;DHT22;5023;53.554;9.964;2022-09-09T06:33:46;15.10;99.90
9965;DHT22;5023;53.554;9.964;2022-09-09T06:38:49;15.10;99.90
9965;DHT22;5023;53.554;9.964;2022-09-09T06:43:51;15.30;99.90
9965;DHT22;5023;53.554;9.964;2022-09-09T06:48:55;15.30;99.90
9965;DHT22;5023;53.554;9.964;2022-09-09T06:54:01;15.30;99.90
9965;DHT22;5023;53.554;9.964;2022-09-09T06:59:05;15.50;99.90
9965;DHT22;5023;53.554;9.964;2022-09-09T07:04:11;15.50;99.90
9965;DHT22;5023;53.554;9.964;2022-09-09T07:09:16;15.60;99.90
9965;DHT22;5023;53.554;9.964;2022-09-09T07:14:19;15.70;99.90
9965;DHT22;5023;53.554;9.964;2022-09-09T07:19:27;15.90;99.90
9965;DHT22;5023;53.554;9.964;2022-09-09T07:24:34;15.90;99.90
9965;DHT22;5023;53.554;9.964;2022-09-09T07:29:36;16.00;99.90
9965;DHT22;5023;53.554;9.964;2022-09-09T07:34:40;16.10;99.90
9965;DHT22;5023;53.554;9.964;2022-09-09T07:39:43;16.30;99.90
9965;DHT22;5023;53.554;9.964;2022-09-09T07:44:49;16.50;99.90
9965;DHT22;5023;53.554;9.964;2022-09-09T07:49:56;16.50;99.90
9965;DHT22;5023;53.554;9.964;2022-09-09T07:55:02;16.50;99.90
9965;DHT22;5023;53.554;9.964;2022-09-09T08:00:06;16.60;99.90
9965;DHT22;5023;53.554;9.964;2022-09-09T08:05:10;16.60;99.90
9965;DHT22;5023;53.554;9.964;2022-09-09T08:10:13;16.90;99.90
9965;DHT22;5023;53.554;9.964;2022-09-09T08:15:16;17.00;99.90
9965;DHT22;5023;53.554;9.964;2022-09-09T08:20:25;17.20;99.90
9965;DHT22;5023;53.554;9.964;2022-09-09T08:25:32;17.30;99.90
9965;DHT22;5023;53.554;9.964;2022-09-09T08:30:35;17.40;99.90
9965;DHT22;5023;53.554;9.964;2022-09-09T08:35:39;17.50;99.90
9965;DHT22;5023;53.554;9.964;2022-09-09T08:40:46;17.70;99.90
9965;DHT22;5023;53.554;9.964;2022-09-09T08:45:57;17.70;99.90
9965;DHT22;5023;53.554;9.964;2022-09-09T08:51:10;17.70;99.90
9965;DHT22;5023;53.554;9.964;2022-09-09T08:56:14;17.80;99.90
9965;DHT22;5023;53.554;9.964;2022-09-09T09:01:43;17.80;99.90
9965;DHT22;5023;53.554;9.964;2022-09-09T09:06:53;18.00;99.90
9965;DHT22;5023;53.554;9.964;2022-09-09T09:12:00;18.10;99.90
9965;DHT22;5023;53.554;9.964;2022-09-09T09:17:04;18.20;99.90
9965;DHT22;5023;53.554;9.964;2022-09-09T09:22:16;18.20;99.90
9965;DHT22;5023;53.554;9.964;2022-09-09T09:27:28;18.30;99.90
9965;DHT22;5023;53.554;9.964;2022-09-09T09:32:34;18.30;99.90
9965;DHT22;5023;53.554;9.964;2022-09-09T09:37:40;18.50;99.90
9965;DHT22;5023;53.554;9.964;2022-09-09T09:42:49;18.50;99.90
9965;DHT22;5023;53.554;9.964;2022-09-09T09:48:04;18.70;99.90
9965;DHT22;5023;53.554;9.964;2022-09-09T09:53:21;18.70;99.90
9965;DHT22;5023;53.554;9.964;2022-09-09T09:58:30;18.80;99.90
9965;DHT22;5023;53.554;9.964;2022-09-09T10:03:36;19.00;99.90
9965;DHT22;5023;53.554;9.964;2022-09-09T10:08:46;19.20;99.90
9965;DHT22;5023;53.554;9.964;2022-09-09T10:14:04;19.30;99.90
9965;DHT22;5023;53.554;9.964;2022-09-09T10:19:26;19.40;99.90
9965;DHT22;5023;53.554;9.964;2022-09-09T10:25:16;19.40;99.90
9965;DHT22;5023;53.554;9.964;2022-09-09T10:30:35;19.70;99.90
9965;DHT22;5023;53.554;9.964;2022-09-09T10:35:57;19.70;99.90
9965;DHT22;5023;53.554;9.964;2022-09-09T10:41:19;19.80;99.90
9965;DHT22;5023;53.554;9.964;2022-09-09T10:52:57;19.80;99.90
9965;DHT22;5023;53.554;9.964;2022-09-09T10:58:14;19.80;99.90
9965;DHT22;5023;53.554;9.964;2022-09-09T11:03:38;19.90;99.90
9965;DHT22;5023;53.554;9.964;2022-09-09T11:09:10;20.00;99.90
9965;DHT22;5023;53.554;9.964;2022-09-09T11:14:26;20.00;99.90
9965;DHT22;5023;53.554;9.964;2022-09-09T11:19:39;20.10;99.90
9965;DHT22;5023;53.554;9.964;2022-09-09T11:25:21;20.20;99.90
9965;DHT22;5023;53.554;9.964;2022-09-09T11:31:03;20.80;99.90
9965;DHT22;5023;53.554;9.964;2022-09-09T11:37:08;20.90;99.90
9965;DHT22;5023;53.554;9.964;2022-09-09T11:42:23;20.80;99.90
9965;DHT22;5023;53.554;9.964;2022-09-09T11:47:50;21.00;99.90
9965;DHT22;5023;53.554;9.964;2022-09-09T11:59:19;20.90;99.90
9965;DHT22;5023;53.554;9.964;2022-09-09T12:04:39;20.80;99.90
9965;DHT22;5023;53.554;9.964;2022-09-09T12:09:49;20.80;99.90
9965;DHT22;5023;53.554;9.964;2022-09-09T12:14:59;20.70;99.90
9965;DHT22;5023;53.554;9.964;2022-09-09T12:20:13;20.50;99.90
9965;DHT22;5023;53.554;9.964;2022-09-09T12:25:22;20.50;99.90
9965;DHT22;5023;53.554;9.964;2022-09-09T12:30:32;20.80;99.90
9965;DHT22;5023;53.554;9.964;2022-09-09T12:35:41;20.90;99.90
9965;DHT22;5023;53.554;9.964;2022-09-09T12:40:58;21.00;99.90
9965;DHT22;5023;53.554;9.964;2022-09-09T12:46:06;21.10;99.90
9965;DHT22;5023;53.554;9.964;2022-09-09T12:51:23;20.80;99.90
9965;DHT22;5023;53.554;9.964;2022-09-09T12:56:30;20.70;99.90
9965;DHT22;5023;53.554;9.964;2022-09-09T13:01:33;20.60;99.90
9965;DHT22;5023;53.554;9.964;2022-09-09T13:06:36;20.50;99.90
9965;DHT22;5023;53.554;9.964;2022-09-09T13:11:41;20.40;99.90
9965;DHT22;5023;53.554;9.964;2022-09-09T13:16:56;20.30;99.90
9965;DHT22;5023;53.554;9.964;2022-09-09T13:22:00;20.10;99.90
9965;DHT22;5023;53.554;9.964;2022-09-09T13:27:26;20.00;99.90
9965;DHT22;5023;53.554;9.964;2022-09-09T13:32:29;19.70;99.90
9965;DHT22;5023;53.554;9.964;2022-09-09T13:37:34;19.30;99.90
9965;DHT22;5023;53.554;9.964;2022-09-09T13:42:40;19.00;99.90
9965;DHT22;5023;53.554;9.964;2022-09-09T13:47:43;18.60;99.90
9965;DHT22;5023;53.554;9.964;2022-09-09T13:52:50;18.50;99.90
9965;DHT22;5023;53.554;9.964;2022-09-09T13:58:00;18.30;99.90
9965;DHT22;5023;53.554;9.964;2022-09-09T14:03:02;18.20;99.90
9965;DHT22;5023;53.554;9.964;2022-09-09T14:08:07;18.10;99.90
9965;DHT22;5023;53.554;9.964;2022-09-09T14:13:11;18.20;99.90
9965;DHT22;5023;53.554;9.964;2022-09-09T14:18:13;18.30;99.90
9965;DHT22;5023;53.554;9.964;2022-09-09T14:23:17;18.20;99.90
9965;DHT22;5023;53.554;9.964;2022-09-09T14:28:19;18.30;99.90
9965;DHT22;5023;53.554;9.964;2022-09-09T14:33:25;18.10;99.90
9965;DHT22;5023;53.554;9.964;2022-09-09T14:38:32;18.10;99.90
9965;DHT22;5023;53.554;9.964;2022-09-09T14:43:43;18.10;99.90
9965;DHT22;5023;53.554;9.964;2022-09-09T14:48:46;18.00;99.90
9965;DHT22;5023;53.554;9.964;2022-09-09T14:53:54;17.80;99.90
9965;DHT22;5023;53.554;9.964;2022-09-09T14:58:59;17.90;99.90
9965;DHT22;5023;53.554;9.964;2022-09-09T15:04:05;18.10;99.90
9965;DHT22;5023;53.554;9.964;2022-09-09T15:09:09;17.90;99.90
9965;DHT22;5023;53.554;9.964;2022-09-09T15:14:13;17.90;99.90
9965;DHT22;5023;53.554;9.964;2022-09-09T15:19:19;17.60;99.90
9965;DHT22;5023;53.554;9.964;2022-09-09T15:24:23;17.50;99.90
9965;DHT22;5023;53.554;9.964;2022-09-09T15:29:26;17.60;99.90
9965;DHT22;5023;53.554;9.964;2022-09-09T15:34:28;17.60;99.90
9965;DHT22;5023;53.554;9.964;2022-09-09T15:39:32;17.50;99.90
9965;DHT22;5023;53.554;9.964;2022-09-09T15:44:41;17.70;99.90
9965;DHT22;5023;53.554;9.964;2022-09-09T15:49:44;17.80;99.90
9965;DHT22;5023;53.554;9.964;2022-09-09T15:54:47;17.80;99.90
9965;DHT22;5023;53.554;9.964;2022-09-09T15:59:50;17.80;99.90
9965;DHT22;5023;53.554;9.964;2022-09-09T16:04:52;17.90;99.90
9965;DHT22;5023;53.554;9.964;2022-09-09T16:09:57;17.70;99.90
9965;DHT22;5023;53.554;9.964;2022-09-09T16:15:00;17.70;99.90
9965;DHT22;5023;53.554;9.964;2022-09-09T16:20:02;17.70;99.90
9965;DHT22;5023;53.554;9.964;2022-09-09T16:25:08;17.70;99.90
9965;DHT22;5023;53.554;9.964;2022-09-09T16:30:11;17.70;99.90
9965;DHT22;5023;53.554;9.964;2022-09-09T16:35:16;17.70;99.90
9965;DHT22;5023;53.554;9.964;2022-09-09T16:40:23;17.70;99.90
9965;DHT22;5023;53.554;9.964;2022-09-09T16:45:25;17.60;99.90
9965;DHT22;5023;53.554;9.964;2022-09-09T16:50:27;17.70;99.90
9965;DHT22;5023;53.554;9.964;2022-09-09T16:55:32;17.70;99.90
9965;DHT22;5023;53.554;9.964;2022-09-09T17:00:37;17.70;99.90
9965;DHT22;5023;53.554;9.964;2022-09-09T17:05:40;17.70;99.90
9965;DHT22;5023;53.554;9.964;2022-09-09T17:10:44;17.70;99.90
9965;DHT22;5023;53.554;9.964;2022-09-09T17:15:48;17.70;99.90
9965;DHT22;5023;53.554;9.964;2022-09-09T17:20:50;17.70;99.90
9965;DHT22;5023;53.554;9.964;2022-09-09T17:26:00;17.60;99.90
9965;DHT22;5023;53.554;9.964;2022-09-09T17:31:06;17.60;99.90
9965;DHT22;5023;53.554;9.964;2022-09-09T17:36:10;17.60;99.90
9965;DHT22;5023;53.554;9.964;2022-09-09T17:41:17;17.70;99.90
9965;DHT22;5023;53.554;9.964;2022-09-09T17:46:26;17.50;99.90
9965;DHT22;5023;53.554;9.964;2022-09-09T17:51:29;17.60;99.90
9965;DHT22;5023;53.554;9.964;2022-09-09T17:56:37;17.50;99.90
9965;DHT22;5023;53.554;9.964;2022-09-09T18:01:41;17.40;99.90
9965;DHT22;5023;53.554;9.964;2022-09-09T18:06:45;17.30;99.90
9965;DHT22;5023;53.554;9.964;2022-09-09T18:11:51;17.20;99.90
9965;DHT22;5023;53.554;9.964;2022-09-09T18:16:53;17.30;99.90
9965;DHT22;5023;53.554;9.964;2022-09-09T18:21:56;17.30;99.90
9965;DHT22;5023;53.554;9.964;2022-09-09T18:27:02;17.30;99.90
9965;DHT22;5023;53.554;9.964;2022-09-09T18:32:08;17.20;99.90
9965;DHT22;5023;53.554;9.964;2022-09-09T18:37:10;17.10;99.90
9965;DHT22;5023;53.554;9.964;2022-09-09T18:42:14;17.10;99.90
9965;DHT22;5023;53.554;9.964;2022-09-09T18:47:16;17.10;99.90
9965;DHT22;5023;53.554;9.964;2022-09-09T18:52:19;17.00;99.90
9965;DHT22;5023;53.554;9.964;2022-09-09T18:57:28;17.10;99.90
9965;DHT22;5023;53.554;9.964;2022-09-09T19:02:30;17.10;99.90
9965;DHT22;5023;53.554;9.964;2022-09-09T19:07:32;17.10;99.90
9965;DHT22;5023;53.554;9.964;2022-09-09T19:12:39;17.20;99.90
9965;DHT22;5023;53.554;9.964;2022-09-09T19:17:43;17.10;99.90
9965;DHT22;5023;53.554;9.964;2022-09-09T19:22:45;17.20;99.90
9965;DHT22;5023;53.554;9.964;2022-09-09T19:27:48;17.00;99.90
9965;DHT22;5023;53.554;9.964;2022-09-09T19:32:50;17.10;99.90
9965;DHT22;5023;53.554;9.964;2022-09-09T19:37:53;17.10;99.90
9965;DHT22;5023;53.554;9.964;2022-09-09T19:42:58;17.10;99.90
9965;DHT22;5023;53.554;9.964;2022-09-09T19:48:02;17.10;99.90
9965;DHT22;5023;53.554;9.964;2022-09-09T19:53:05;16.90;99.90
9965;DHT22;5023;53.554;9.964;2022-09-09T19:58:09;16.90;99.90
9965;DHT22;5023;53.554;9.964;2022-09-09T20:03:11;16.90;99.90
9965;DHT22;5023;53.554;9.964;2022-09-09T20:08:13;16.90;99.90
9965;DHT22;5023;53.554;9.964;2022-09-09T20:13:17;16.80;99.90
9965;DHT22;5023;53.554;9.964;2022-09-09T20:18:19;16.80;99.90
9965;DHT22;5023;53.554;9.964;2022-09-09T20:23:21;16.80;99.90
9965;DHT22;5023;53.554;9.964;2022-09-09T20:28:25;16.80;99.90
9965;DHT22;5023;53.554;9.964;2022-09-09T20:33:28;16.80;99.90
9965;DHT22;5023;53.554;9.964;2022-09-09T20:38:32;16.80;99.90
9965;DHT22;5023;53.554;9.964;2022-09-09T20:43:36;16.70;99.90
9965;DHT22;5023;53.554;9.964;2022-09-09T20:48:41;16.70;99.90
9965;DHT22;5023;53.554;9.964;2022-09-09T20:53:43;16.70;99.90
9965;DHT22;5023;53.554;9.964;2022-09-09T20:58:47;16.70;99.90
9965;DHT22;5023;53.554;9.964;2022-09-09T21:03:52;16.80;99.90
9965;DHT22;5023;53.554;9.964;2022-09-09T21:08:55;16.80;99.90
9965;DHT22;5023;53.554;9.964;2022-09-09T21:14:01;16.80;99.90
9965;DHT22;5023;53.554;9.964;2022-09-09T21:19:04;16.70;99.90
9965;DHT22;5023;53.554;9.964;2022-09-09T21:24:06;16.70;99.90
9965;DHT22;5023;53.554;9.964;2022-09-09T21:29:10;16.60;99.90
9965;DHT22;5023;53.554;9.964;2022-09-09T21:34:13;16.60;99.90
9965;DHT22;5023;53.554;9.964;2022-09-09T21:39:18;16.60;99.90
9965;DHT22;5023;53.554;9.964;2022-09-09T21:44:21;16.50;99.90
9965;DHT22;5023;53.554;9.964;2022-09-09T21:49:25;16.50;99.90
9965;DHT22;5023;53.554;9.964;2022-09-09T21:54:28;16.50;99.90
9965;DHT22;5023;53.554;9.964;2022-09-09T21:59:32;16.50;99.90
9965;DHT22;5023;53.554;9.964;2022-09-09T22:04:41;16.50;99.90
9965;DHT22;5023;53.554;9.964;2022-09-09T22:09:43;16.40;99.90
9965;DHT22;5023;53.554;9.964;2022-09-09T22:14:47;16.40;99.90
9965;DHT22;5023;53.554;9.964;2022-09-09T22:19:51;16.30;99.90
9965;DHT22;5023;53.554;9.964;2022-09-09T22:24:53;16.30;99.90
9965;DHT22;5023;53.554;9.964;2022-09-09T22:29:57;16.40;99.90
9965;DHT22;5023;53.554;9.964;2022-09-09T22:34:59;16.40;99.90
9965;DHT22;5023;53.554;9.964;2022-09-09T22:40:05;16.40;99.90
9965;DHT22;5023;53.554;9.964;2022-09-09T22:45:10;16.40;99.90
9965;DHT22;5023;53.554;9.964;2022-09-09T22:50:12;16.30;99.90
9965;DHT22;5023;53.554;9.964;2022-09-09T22:55:15;16.30;99.90
9965;DHT22;5023;53.554;9.964;2022-09-09T23:00:19;16.30;99.90
9965;DHT22;5023;53.554;9.964;2022-09-09T23:05:21;16.30;99.90
9965;DHT22;5023;53.554;9.964;2022-09-09T23:10:24;16.30;99.90
9965;DHT22;5023;53.554;9.964;2022-09-09T23:15:34;16.30;99.90
9965;DHT22;5023;53.554;9.964;2022-09-09T23:20:37;16.20;99.90
9965;DHT22;5023;53.554;9.964;2022-09-09T23:25:43;16.10;99.90
9965;DHT22;5023;53.554;9.964;2022-09-09T23:30:46;16.10;99.90
9965;DHT22;5023;53.554;9.964;2022-09-09T23:35:57;16.10;99.90
9965;DHT22;5023;53.554;9.964;2022-09-09T23:41:00;16.20;99.90
9965;DHT22;5023;53.554;9.964;2022-09-09T23:46:10;16.10;99.90
9965;DHT22;5023;53.554;9.964;2022-09-09T23:51:13;16.20;99.90
9965;DHT22;5023;53.554;9.964;2022-09-09T23:56:18;16.20;99.90
